createdAt,value
2023-02-08T00:01:16.326Z,102042.84
2023-02-08T00:03:44.491Z,102049.09
2023-02-08T00:06:14.380Z,102057.00
2023-02-08T00:08:42.574Z,102053.78
2023-02-08T00:11:12.088Z,102046.03
2023-02-08T00:13:42.199Z,102045.78
2023-02-08T00:16:10.941Z,102029.94
2023-02-08T00:18:38.864Z,102047.41
2023-02-08T00:21:11.381Z,102048.91
2023-02-08T00:23:40.733Z,102052.88
2023-02-08T00:26:08.979Z,102053.88
2023-02-08T00:28:37.606Z,102057.00
2023-02-08T00:31:06.616Z,102049.66
2023-02-08T00:33:35.663Z,102051.50
2023-02-08T00:36:05.947Z,102056.13
2023-02-08T00:38:34.194Z,102050.97
2023-02-08T00:41:03.405Z,102054.25
2023-02-08T00:43:31.346Z,102048.38
2023-02-08T00:46:00.750Z,102040.41
2023-02-08T00:48:29.510Z,102046.53
2023-02-08T00:51:02.339Z,102037.63
2023-02-08T00:53:30.585Z,102043.63
2023-02-08T00:55:58.818Z,102038.06
2023-02-08T00:58:28.210Z,102042.25
2023-02-08T01:00:56.514Z,102034.00
2023-02-08T01:03:25.351Z,102030.78
2023-02-08T01:05:53.348Z,102020.59
2023-02-08T01:08:22.074Z,102027.13
2023-02-08T01:10:50.285Z,102029.75
2023-02-08T01:13:18.288Z,102028.19
2023-02-08T01:15:47.568Z,102029.06
2023-02-08T01:18:15.425Z,102023.47
2023-02-08T01:20:43.410Z,102020.59
2023-02-08T01:23:11.290Z,102032.16
2023-02-08T01:25:39.430Z,102034.03
2023-02-08T01:28:07.376Z,102035.91
2023-02-08T01:30:35.401Z,102030.16
2023-02-08T01:33:06.040Z,102027.38
2023-02-08T01:35:33.959Z,102030.50
2023-02-08T01:38:01.766Z,102034.72
2023-02-08T01:40:29.582Z,102040.63
2023-02-08T01:42:57.426Z,102049.88
2023-02-08T01:45:28.791Z,102029.06
2023-02-08T01:48:04.094Z,102060.59
2023-02-08T01:50:43.225Z,102051.34
2023-02-08T01:53:12.390Z,102042.84
2023-02-08T01:55:45.800Z,102048.50
2023-02-08T01:58:16.348Z,102050.84
2023-02-08T02:00:44.291Z,102050.09
2023-02-08T02:03:14.771Z,102045.78
2023-02-08T02:05:49.531Z,102054.19
2023-02-08T02:08:17.531Z,102064.94
2023-02-08T02:10:45.573Z,102068.50
2023-02-08T02:13:20.480Z,102055.88
2023-02-08T02:15:49.547Z,102058.84
2023-02-08T02:18:23.228Z,102067.25
2023-02-08T02:21:26.349Z,102063.75
2023-02-08T02:24:33.891Z,102063.50
2023-02-08T02:27:20.642Z,102066.25
2023-02-08T02:30:25.875Z,102062.13
2023-02-08T02:33:06.231Z,102067.72
2023-02-08T02:35:42.356Z,102052.00
2023-02-08T02:38:21.574Z,102060.59
2023-02-08T02:41:01.653Z,102066.75
2023-02-08T02:43:42.662Z,102053.03
2023-02-08T02:46:22.992Z,102069.66
2023-02-08T02:49:00.849Z,102070.34
2023-02-08T02:51:34.993Z,102070.66
2023-02-08T02:54:08.322Z,102061.91
2023-02-08T02:56:40.370Z,102075.38
2023-02-08T02:59:10.822Z,102076.59
2023-02-08T03:01:39.456Z,102075.25
2023-02-08T03:04:16.105Z,102078.38
2023-02-08T03:06:56.867Z,102086.38
2023-02-08T03:09:48.708Z,102085.94
2023-02-08T03:12:36.081Z,102098.94
2023-02-08T03:15:14.663Z,102099.34
2023-02-08T03:17:55.785Z,102101.88
2023-02-08T03:20:29.018Z,102115.94
2023-02-08T03:23:03.568Z,102101.03
2023-02-08T03:25:39.910Z,102121.41
2023-02-08T03:28:14.784Z,102109.50
2023-02-08T03:30:51.999Z,102118.00
2023-02-08T03:33:28.690Z,102113.59
2023-02-08T03:36:04.582Z,102117.22
2023-02-08T03:38:36.950Z,102115.16
2023-02-08T03:41:08.824Z,102120.31
2023-02-08T03:43:39.732Z,102114.16
2023-02-08T03:46:11.813Z,102112.72
2023-02-08T03:48:44.500Z,102121.19
2023-02-08T03:51:16.388Z,102112.41
2023-02-08T03:53:46.775Z,102109.75
2023-02-08T03:56:21.466Z,102094.31
2023-02-08T03:58:56.429Z,102117.22
2023-02-08T04:01:29.296Z,102115.44
2023-02-08T04:03:59.315Z,102123.00
2023-02-08T04:06:29.117Z,102116.94
2023-02-08T04:08:57.098Z,102105.22
2023-02-08T04:11:24.938Z,102117.63
2023-02-08T04:13:52.798Z,102113.56
2023-02-08T04:16:20.661Z,102104.88
2023-02-08T04:18:48.550Z,102121.88
2023-02-08T04:22:17.157Z,102128.00
2023-02-08T04:24:46.362Z,102121.75
2023-02-08T04:27:14.209Z,102116.53
2023-02-08T04:29:42.298Z,102130.44
2023-02-08T04:32:11.778Z,102125.53
2023-02-08T04:34:39.973Z,102120.72
2023-02-08T04:37:09.183Z,102127.19
2023-02-08T04:39:37.131Z,102130.72
2023-02-08T04:42:06.426Z,102121.56
2023-02-08T04:44:34.292Z,102123.47
2023-02-08T04:47:02.219Z,102128.19
2023-02-08T04:49:30.105Z,102126.72
2023-02-08T04:51:57.924Z,102120.38
2023-02-08T04:54:25.812Z,102113.81
2023-02-08T04:56:53.764Z,102117.34
2023-02-08T04:59:23.082Z,102115.44
2023-02-08T05:01:50.988Z,102114.56
2023-02-08T05:04:18.926Z,102109.34
2023-02-08T05:06:48.403Z,102114.97
2023-02-08T05:09:16.651Z,102109.31
2023-02-08T05:11:44.506Z,102109.78
2023-02-08T05:14:12.433Z,102121.19
2023-02-08T05:16:41.671Z,102128.00
2023-02-08T05:19:11.887Z,102136.13
2023-02-08T05:21:39.745Z,102133.09
2023-02-08T05:24:08.001Z,102130.13
2023-02-08T05:26:35.874Z,102136.66
2023-02-08T05:29:03.984Z,102139.63
2023-02-08T05:31:32.012Z,102136.31
2023-02-08T05:34:01.360Z,102137.13
2023-02-08T05:36:30.766Z,102139.75
2023-02-08T05:38:58.783Z,102138.75
2023-02-08T05:41:26.641Z,102146.47
2023-02-08T05:43:54.526Z,102147.56
2023-02-08T05:46:22.459Z,102144.50
2023-02-08T05:48:50.466Z,102161.38
2023-02-08T05:51:20.810Z,102166.25
2023-02-08T05:53:48.727Z,102164.97
2023-02-08T05:56:16.530Z,102156.22
2023-02-08T05:58:44.484Z,102158.53
2023-02-08T06:01:13.586Z,102149.25
2023-02-08T06:03:42.152Z,102144.97
2023-02-08T06:06:11.850Z,102148.16
2023-02-08T06:08:41.511Z,102168.47
2023-02-08T06:11:09.405Z,102165.81
2023-02-08T06:13:37.304Z,102173.53
2023-02-08T06:16:05.648Z,102182.22
2023-02-08T06:18:33.523Z,102173.13
2023-02-08T06:21:01.416Z,102170.69
2023-02-08T06:23:29.254Z,102170.03
2023-02-08T06:25:58.562Z,102172.38
2023-02-08T06:28:26.456Z,102177.16
2023-02-08T06:30:54.386Z,102168.69
2023-02-08T06:33:22.334Z,102177.03
2023-02-08T06:35:53.084Z,102161.22
2023-02-08T06:38:21.478Z,102160.34
2023-02-08T06:40:50.237Z,102175.50
2023-02-08T06:43:20.181Z,102174.59
2023-02-08T06:45:48.388Z,102181.31
2023-02-08T06:48:16.532Z,102189.44
2023-02-08T06:50:44.605Z,102180.34
2023-02-08T06:53:12.679Z,102187.66
2023-02-08T06:55:40.532Z,102186.88
2023-02-08T06:58:08.480Z,102197.34
2023-02-08T07:00:39.332Z,102195.84
2023-02-08T07:03:07.317Z,102194.47
2023-02-08T07:05:35.561Z,102213.44
2023-02-08T07:08:04.924Z,102204.78
2023-02-08T07:10:33.029Z,102202.44
2023-02-08T07:13:02.648Z,102192.38
2023-02-08T07:15:30.982Z,102178.69
2023-02-08T07:18:00.262Z,102182.22
2023-02-08T07:20:28.394Z,102179.69
2023-02-08T07:22:56.512Z,102181.81
2023-02-08T07:25:24.523Z,102191.66
2023-02-08T07:27:52.421Z,102199.06
2023-02-08T07:30:20.419Z,102197.44
2023-02-08T07:32:48.296Z,102197.53
2023-02-08T07:35:17.607Z,102196.03
2023-02-08T07:37:45.510Z,102193.19
2023-02-08T07:40:13.696Z,102200.81
2023-02-08T07:42:41.485Z,102196.41
2023-02-08T07:45:20.579Z,102199.66
2023-02-08T07:47:48.562Z,102205.94
2023-02-08T07:50:18.226Z,102205.81
2023-02-08T07:52:47.458Z,102206.19
2023-02-08T07:55:17.197Z,102216.91
2023-02-08T07:57:45.766Z,102216.38
2023-02-08T08:00:15.133Z,102220.19
2023-02-08T08:02:43.546Z,102219.06
2023-02-08T08:05:12.273Z,102227.13
2023-02-08T08:07:41.546Z,102227.84
2023-02-08T08:10:09.996Z,102232.00
2023-02-08T08:12:37.918Z,102225.75
2023-02-08T08:15:06.867Z,102226.75
2023-02-08T08:17:34.735Z,102230.88
2023-02-08T08:20:02.543Z,102228.25
2023-02-08T08:22:30.552Z,102236.28
2023-02-08T08:25:00.051Z,102235.03
2023-02-08T08:27:28.026Z,102236.78
2023-02-08T08:29:55.907Z,102241.44
2023-02-08T08:32:23.927Z,102240.88
2023-02-08T08:34:51.797Z,102248.09
2023-02-08T08:37:19.684Z,102250.03
2023-02-08T08:39:47.531Z,102248.22
2023-02-08T08:42:16.964Z,102245.47
2023-02-08T08:44:45.404Z,102248.66
2023-02-08T08:47:13.343Z,102253.91
2023-02-08T08:49:42.674Z,102260.25
2023-02-08T08:52:11.301Z,102262.25
2023-02-08T08:54:39.203Z,102248.56
2023-02-08T08:57:07.993Z,102251.00
2023-02-08T08:59:37.145Z,102251.31
2023-02-08T09:02:05.389Z,102240.78
2023-02-08T09:04:33.321Z,102253.81
2023-02-08T09:07:01.464Z,102249.97
2023-02-08T09:09:29.299Z,102255.81
2023-02-08T09:11:57.269Z,102260.22
2023-02-08T09:14:25.206Z,102257.06
2023-02-08T09:16:54.831Z,102250.84
2023-02-08T09:19:22.698Z,102256.81
2023-02-08T09:21:50.544Z,102267.38
2023-02-08T09:24:19.335Z,102257.53
2023-02-08T09:26:47.142Z,102262.47
2023-02-08T09:29:14.962Z,102259.69
2023-02-08T09:31:43.044Z,102255.81
2023-02-08T09:34:12.399Z,102260.34
2023-02-08T09:36:41.876Z,102263.47
2023-02-08T09:39:13.179Z,102259.13
2023-02-08T09:42:13.970Z,102257.88
2023-02-08T09:44:54.439Z,102263.19
2023-02-08T09:47:25.737Z,102256.34
2023-02-08T09:49:59.822Z,102260.38
2023-02-08T09:52:34.079Z,102240.56
2023-02-08T09:55:11.705Z,102261.09
2023-02-08T09:57:40.338Z,102257.06
2023-02-08T10:00:15.026Z,102267.94
2023-02-08T10:02:44.959Z,102264.25
2023-02-08T10:05:16.776Z,102276.69
2023-02-08T10:07:45.008Z,102262.31
2023-02-08T10:10:16.980Z,102267.22
2023-02-08T10:12:52.578Z,102257.41
2023-02-08T10:15:35.275Z,102265.47
2023-02-08T10:18:15.515Z,102241.81
2023-02-08T10:21:06.454Z,102256.16
2023-02-08T10:23:49.069Z,102270.41
2023-02-08T10:26:27.075Z,102254.75
2023-02-08T10:29:17.978Z,102251.25
2023-02-08T10:31:59.765Z,102248.81
2023-02-08T10:34:42.044Z,102251.25
2023-02-08T10:37:17.486Z,102248.44
2023-02-08T10:39:46.202Z,102246.66
2023-02-08T10:42:17.023Z,102243.16
2023-02-08T10:44:57.359Z,102248.38
2023-02-08T10:47:39.419Z,102243.44
2023-02-08T10:50:13.530Z,102245.53
2023-02-08T10:52:42.957Z,102246.53
2023-02-08T10:55:16.139Z,102238.78
2023-02-08T10:57:44.908Z,102239.13
2023-02-08T11:00:19.627Z,102235.03
2023-02-08T11:02:49.539Z,102236.31
2023-02-08T11:05:20.030Z,102225.22
2023-02-08T11:08:05.364Z,102222.44
2023-02-08T11:10:33.493Z,102222.63
2023-02-08T11:13:05.740Z,102229.44
2023-02-08T11:15:39.908Z,102236.13
2023-02-08T11:18:16.553Z,102236.84
2023-02-08T11:20:49.541Z,102234.72
2023-02-08T11:23:23.335Z,102228.69
2023-02-08T11:25:52.043Z,102232.00
2023-02-08T11:28:26.334Z,102225.16
2023-02-08T11:30:59.813Z,102236.03
2023-02-08T11:33:29.584Z,102237.41
2023-02-08T11:36:01.385Z,102227.94
2023-02-08T11:38:32.295Z,102227.56
2023-02-08T11:41:03.352Z,102222.66
2023-02-08T11:43:33.428Z,102210.88
2023-02-08T11:46:03.672Z,102210.25
2023-02-08T11:48:41.195Z,102191.44
2023-02-08T11:51:10.954Z,102209.53
2023-02-08T11:53:41.987Z,102213.72
2023-02-08T11:56:18.438Z,102208.66
2023-02-08T11:59:02.294Z,102201.09
2023-02-08T12:01:32.077Z,102205.31
2023-02-08T12:04:02.819Z,102204.59
2023-02-08T12:07:10.004Z,102205.25
2023-02-08T12:09:52.799Z,102202.97
2023-02-08T12:12:30.742Z,102210.81
2023-02-08T12:15:10.276Z,102198.13
2023-02-08T12:17:56.273Z,102209.03
2023-02-08T12:20:40.346Z,102202.28
2023-02-08T12:23:25.274Z,102199.41
2023-02-08T12:26:06.327Z,102192.53
2023-02-08T12:28:47.140Z,102187.44
2023-02-08T12:31:24.006Z,102183.63
2023-02-08T12:34:03.113Z,102188.31
2023-02-08T12:36:44.434Z,102186.34
2023-02-08T12:39:57.397Z,102187.31
2023-02-08T12:42:40.600Z,102184.06
2023-02-08T12:45:29.830Z,102183.66
2023-02-08T12:48:07.821Z,102187.88
2023-02-08T12:50:46.353Z,102174.75
2023-02-08T12:53:22.290Z,102173.09
2023-02-08T12:55:52.248Z,102182.94
2023-02-08T12:58:29.526Z,102174.31
2023-02-08T13:01:02.864Z,102175.28
2023-02-08T13:03:38.668Z,102176.97
2023-02-08T13:06:08.814Z,102165.53
2023-02-08T13:08:41.982Z,102171.41
2023-02-08T13:11:20.196Z,102170.75
2023-02-08T13:13:58.017Z,102157.88
2023-02-08T13:16:30.085Z,102167.47
2023-02-08T13:19:12.323Z,102156.44
2023-02-08T13:21:43.823Z,102160.00
2023-02-08T13:24:20.597Z,102155.78
2023-02-08T13:26:48.548Z,102157.03
2023-02-08T13:29:21.334Z,102152.09
2023-02-08T13:31:53.685Z,102159.56
2023-02-08T13:34:29.372Z,102156.81
2023-02-08T13:37:00.842Z,102154.06
2023-02-08T13:39:36.514Z,102147.72
2023-02-08T13:42:07.192Z,102151.66
2023-02-08T13:44:38.455Z,102148.47
2023-02-08T13:47:08.670Z,102143.53
2023-02-08T13:49:45.185Z,102139.31
2023-02-08T13:52:13.777Z,102141.06
2023-02-08T13:54:42.351Z,102144.41
2023-02-08T13:57:43.799Z,102125.63
2023-02-08T14:00:24.798Z,102128.28
2023-02-08T14:03:04.156Z,102125.50
2023-02-08T14:05:45.206Z,102129.44
2023-02-08T14:08:25.041Z,102129.00
2023-02-08T14:11:07.258Z,102124.34
2023-02-08T14:13:40.878Z,102113.72
2023-02-08T14:16:31.763Z,102121.97
2023-02-08T14:19:01.357Z,102123.28
2023-02-08T14:21:34.496Z,102121.25
2023-02-08T14:24:05.278Z,102118.75
2023-02-08T14:26:33.747Z,102113.66
2023-02-08T14:29:06.033Z,102120.00
2023-02-08T14:31:43.960Z,102112.13
2023-02-08T14:34:25.343Z,102110.53
2023-02-08T14:37:02.346Z,102111.84
2023-02-08T14:39:33.517Z,102090.16
2023-02-08T14:42:05.409Z,102114.31
2023-02-08T14:45:04.562Z,102113.88
2023-02-08T14:48:20.007Z,102101.34
2023-02-08T14:51:10.620Z,102108.28
2023-02-08T14:53:45.074Z,102116.22
2023-02-08T14:56:20.483Z,102115.63
2023-02-08T14:58:52.506Z,102108.91
2023-02-08T15:01:22.741Z,102115.63
2023-02-08T15:03:54.608Z,102117.06
2023-02-08T15:06:57.628Z,102120.56
2023-02-08T15:09:30.091Z,102110.38
2023-02-08T15:12:03.494Z,102115.34
2023-02-08T15:14:34.599Z,102113.44
2023-02-08T15:17:03.119Z,102115.09
2023-02-08T15:19:35.109Z,102111.59
2023-02-08T15:22:30.954Z,102130.81
2023-02-08T15:25:02.221Z,102128.81
2023-02-08T15:27:32.088Z,102131.47
2023-02-08T15:30:00.151Z,102130.28
2023-02-08T15:32:30.601Z,102139.75
2023-02-08T15:35:00.525Z,102142.22
2023-02-08T15:37:31.709Z,102136.41
2023-02-08T15:40:02.694Z,102134.91
2023-02-08T15:42:34.458Z,102144.63
2023-02-08T15:45:04.368Z,102150.16
2023-02-08T15:47:35.933Z,102140.31
2023-02-08T15:50:07.591Z,102145.03
2023-02-08T15:52:38.184Z,102141.53
2023-02-08T15:55:10.361Z,102150.03
2023-02-08T15:57:44.099Z,102150.22
2023-02-08T16:00:16.854Z,102148.63
2023-02-08T16:02:45.848Z,102162.25
2023-02-08T16:05:21.825Z,102160.66
2023-02-08T16:07:51.785Z,102163.44
2023-02-08T16:10:33.504Z,102165.84
2023-02-08T16:13:05.806Z,102160.84
2023-02-08T16:15:44.912Z,102161.47
2023-02-08T16:18:39.294Z,102161.72
2023-02-08T16:21:20.577Z,102166.88
2023-02-08T16:23:53.574Z,102175.94
2023-02-08T16:26:28.152Z,102172.66
2023-02-08T16:28:59.645Z,102172.72
2023-02-08T16:31:30.117Z,102179.31
2023-02-08T16:34:00.773Z,102176.00
2023-02-08T16:36:33.695Z,102177.84
2023-02-08T16:39:47.892Z,102183.16
2023-02-08T16:42:29.233Z,102184.94
2023-02-08T16:45:17.338Z,102186.78
2023-02-08T16:47:48.296Z,102195.06
2023-02-08T16:50:18.665Z,102177.34
2023-02-08T16:52:50.605Z,102185.13
2023-02-08T16:55:21.605Z,102186.38
2023-02-08T16:57:52.465Z,102180.41
2023-02-08T17:00:23.941Z,102184.13
2023-02-08T17:02:53.258Z,102187.28
2023-02-08T17:05:22.763Z,102188.69
2023-02-08T17:07:51.640Z,102184.31
2023-02-08T17:10:28.322Z,102183.97
2023-02-08T17:13:17.452Z,102180.34
2023-02-08T17:15:47.644Z,102169.13
2023-02-08T17:18:15.673Z,102175.44
2023-02-08T17:20:44.079Z,102161.41
2023-02-08T17:23:12.083Z,102171.94
2023-02-08T17:25:41.978Z,102184.25
2023-02-08T17:28:17.155Z,102186.34
2023-02-08T17:30:46.015Z,102185.31
2023-02-08T17:33:18.238Z,102187.78
2023-02-08T17:35:47.833Z,102188.34
2023-02-08T17:38:15.775Z,102177.13
2023-02-08T17:40:45.078Z,102195.91
2023-02-08T17:43:14.994Z,102199.09
2023-02-08T17:45:44.922Z,102204.69
2023-02-08T17:48:14.388Z,102198.03
2023-02-08T17:50:44.128Z,102205.47
2023-02-08T17:53:12.367Z,102205.53
2023-02-08T17:55:42.824Z,102195.91
2023-02-08T17:58:10.936Z,102203.44
2023-02-08T18:00:40.491Z,102200.81
2023-02-08T18:03:08.471Z,102204.50
2023-02-08T18:05:36.837Z,102202.91
2023-02-08T18:08:05.001Z,102208.00
2023-02-08T18:10:33.053Z,102203.78
2023-02-08T18:13:01.026Z,102197.81
2023-02-08T18:15:28.930Z,102196.41
2023-02-08T18:17:58.215Z,102197.28
2023-02-08T18:20:26.598Z,102193.56
2023-02-08T18:22:54.473Z,102201.81
2023-02-08T18:25:22.315Z,102207.94
2023-02-08T18:27:50.195Z,102200.72
2023-02-08T18:30:18.895Z,102202.78
2023-02-08T18:32:47.159Z,102203.50
2023-02-08T18:35:16.385Z,102199.25
2023-02-08T18:37:46.446Z,102195.41
2023-02-08T18:40:14.262Z,102197.88
2023-02-08T18:42:42.174Z,102197.66
2023-02-08T18:45:10.843Z,102186.59
2023-02-08T18:47:39.856Z,102201.34
2023-02-08T18:50:09.100Z,102181.19
2023-02-08T18:52:38.298Z,102196.09
2023-02-08T18:55:07.103Z,102195.22
2023-02-08T18:57:38.835Z,102201.88
2023-02-08T19:00:07.647Z,102199.97
2023-02-08T19:02:36.550Z,102201.19
2023-02-08T19:05:06.642Z,102211.78
2023-02-08T19:07:35.439Z,102217.44
2023-02-08T19:10:05.192Z,102212.75
2023-02-08T19:12:33.161Z,102193.84
2023-02-08T19:15:01.158Z,102205.28
2023-02-08T19:17:29.151Z,102204.41
2023-02-08T19:19:57.018Z,102206.53
2023-02-08T19:22:24.873Z,102210.75
2023-02-08T19:24:53.326Z,102208.44
2023-02-08T19:27:22.540Z,102209.31
2023-02-08T19:29:52.271Z,102211.25
2023-02-08T19:32:20.236Z,102212.31
2023-02-08T19:34:48.191Z,102209.50
2023-02-08T19:37:16.060Z,102202.31
2023-02-08T19:39:44.044Z,102211.06
2023-02-08T19:42:12.001Z,102210.22
2023-02-08T19:44:41.268Z,102219.69
2023-02-08T19:47:09.192Z,102217.41
2023-02-08T19:49:37.224Z,102221.28
2023-02-08T19:52:05.337Z,102222.84
2023-02-08T19:54:33.419Z,102212.31
2023-02-08T19:57:01.436Z,102220.72
2023-02-08T19:59:33.151Z,102219.31
2023-02-08T20:02:04.271Z,102216.50
2023-02-08T20:04:33.019Z,102216.69
2023-02-08T20:07:00.842Z,102218.06
2023-02-08T20:09:28.821Z,102209.84
2023-02-08T20:11:57.995Z,102217.19
2023-02-08T20:14:26.540Z,102222.78
2023-02-08T20:16:54.497Z,102224.16
2023-02-08T20:19:24.264Z,102223.66
2023-02-08T20:21:52.356Z,102226.25
2023-02-08T20:24:20.676Z,102223.28
2023-02-08T20:26:49.590Z,102235.53
2023-02-08T20:29:18.177Z,102234.34
2023-02-08T20:31:48.607Z,102232.44
2023-02-08T20:34:18.923Z,102246.81
2023-02-08T20:37:06.898Z,102238.38
2023-02-08T20:39:39.975Z,102249.75
2023-02-08T20:42:07.986Z,102238.09
2023-02-08T20:44:36.002Z,102240.69
2023-02-08T20:47:03.928Z,102244.72
2023-02-08T20:49:32.389Z,102240.31
2023-02-08T20:52:01.717Z,102238.78
2023-02-08T20:54:29.583Z,102237.41
2023-02-08T20:56:58.401Z,102238.75
2023-02-08T20:59:26.265Z,102236.25
2023-02-08T21:01:54.215Z,102231.56
2023-02-08T21:04:23.506Z,102230.06
2023-02-08T21:06:52.097Z,102232.91
2023-02-08T21:09:22.058Z,102235.22
2023-02-08T21:11:50.316Z,102233.31
2023-02-08T21:14:20.796Z,102235.41
2023-02-08T21:16:50.866Z,102232.53
2023-02-08T21:19:20.523Z,102226.22
2023-02-08T21:21:51.205Z,102232.19
2023-02-08T21:24:19.100Z,102232.41
2023-02-08T21:26:48.332Z,102236.06
2023-02-08T21:29:16.623Z,102237.41
2023-02-08T21:31:44.757Z,102225.41
2023-02-08T21:34:13.428Z,102231.34
2023-02-08T21:36:41.321Z,102231.09
2023-02-08T21:39:09.219Z,102220.28
2023-02-08T21:41:37.240Z,102209.19
2023-02-08T21:44:08.129Z,102220.78
2023-02-08T21:46:36.375Z,102207.34
2023-02-08T21:49:22.054Z,102214.56
2023-02-08T21:52:07.695Z,102231.34
2023-02-08T21:54:42.537Z,102227.94
2023-02-08T21:57:12.360Z,102225.63
2023-02-08T21:59:41.828Z,102223.91
2023-02-08T22:02:14.306Z,102222.72
2023-02-08T22:04:59.935Z,102214.19
2023-02-08T22:07:28.937Z,102218.38
2023-02-08T22:09:56.877Z,102221.22
2023-02-08T22:12:24.769Z,102206.97
2023-02-08T22:14:54.127Z,102202.25
2023-02-08T22:17:22.020Z,102207.72
2023-02-08T22:19:49.818Z,102217.38
2023-02-08T22:22:17.763Z,102219.13
2023-02-08T22:24:45.639Z,102202.84
2023-02-08T22:27:13.647Z,102205.31
2023-02-08T22:29:41.465Z,102219.47
2023-02-08T22:32:12.532Z,102218.03
2023-02-08T22:34:40.558Z,102224.31
2023-02-08T22:37:08.488Z,102225.19
2023-02-08T22:39:36.551Z,102218.72
2023-02-08T22:42:08.548Z,102218.03
2023-02-08T22:44:36.640Z,102212.94
2023-02-08T22:47:04.825Z,102211.00
2023-02-08T22:49:34.448Z,102213.44
2023-02-08T22:52:03.313Z,102211.59
2023-02-08T22:54:31.146Z,102210.09
2023-02-08T22:56:59.038Z,102219.19
2023-02-08T22:59:26.879Z,102211.28
2023-02-08T23:01:55.502Z,102209.66
2023-02-08T23:04:23.430Z,102175.03
2023-02-08T23:06:52.677Z,102200.88
2023-02-08T23:09:20.674Z,102194.66
2023-02-08T23:11:48.618Z,102182.47
2023-02-08T23:14:16.735Z,102180.22
2023-02-08T23:16:44.710Z,102182.84
2023-02-08T23:19:14.440Z,102171.59
2023-02-08T23:21:42.567Z,102183.09
2023-02-08T23:24:12.510Z,102181.63
2023-02-08T23:26:40.624Z,102188.97
2023-02-08T23:29:08.604Z,102180.59
2023-02-08T23:31:36.541Z,102189.31
2023-02-08T23:34:04.454Z,102188.44
2023-02-08T23:36:32.387Z,102187.25
2023-02-08T23:39:01.403Z,102179.22
2023-02-08T23:41:30.755Z,102177.13
2023-02-08T23:43:58.806Z,102177.50
2023-02-08T23:46:28.799Z,102176.38
2023-02-08T23:48:57.156Z,102154.84
2023-02-08T23:51:26.528Z,102170.97
2023-02-08T23:53:55.373Z,102174.91
2023-02-08T23:56:25.352Z,102172.59
2023-02-08T23:58:56.770Z,102176.63
